sensor_id;sensor_type;location;lat;lon;timestamp;P1;durP1;ratioP1;P2;durP2;ratioP2
36931;SDS011;22847;42.654;23.370;2022-07-29T00:02:08;11.73;;;8.63;;
36931;SDS011;22847;42.654;23.370;2022-07-29T00:04:34;15.35;;;8.50;;
36931;SDS011;22847;42.654;23.370;2022-07-29T00:07:00;9.77;;;7.88;;
36931;SDS011;22847;42.654;23.370;2022-07-29T00:09:26;10.45;;;8.82;;
36931;SDS011;22847;42.654;23.370;2022-07-29T00:11:51;11.93;;;8.15;;
36931;SDS011;22847;42.654;23.370;2022-07-29T00:14:18;11.57;;;7.97;;
36931;SDS011;22847;42.654;23.370;2022-07-29T00:16:43;9.10;;;8.18;;
36931;SDS011;22847;42.654;23.370;2022-07-29T00:19:09;10.98;;;8.30;;
36931;SDS011;22847;42.654;23.370;2022-07-29T00:21:34;9.18;;;7.63;;
36931;SDS011;22847;42.654;23.370;2022-07-29T00:23:59;10.07;;;8.13;;
36931;SDS011;22847;42.654;23.370;2022-07-29T00:26:25;9.38;;;8.38;;
36931;SDS011;22847;42.654;23.370;2022-07-29T00:28:52;9.82;;;8.30;;
36931;SDS011;22847;42.654;23.370;2022-07-29T00:31:18;14.10;;;8.70;;
36931;SDS011;22847;42.654;23.370;2022-07-29T00:33:43;14.65;;;8.60;;
36931;SDS011;22847;42.654;23.370;2022-07-29T00:36:08;11.18;;;8.13;;
36931;SDS011;22847;42.654;23.370;2022-07-29T00:38:34;12.68;;;8.70;;
36931;SDS011;22847;42.654;23.370;2022-07-29T00:40:59;13.27;;;9.25;;
36931;SDS011;22847;42.654;23.370;2022-07-29T00:43:25;11.02;;;8.57;;
36931;SDS011;22847;42.654;23.370;2022-07-29T00:45:50;11.25;;;8.32;;
36931;SDS011;22847;42.654;23.370;2022-07-29T00:48:16;9.93;;;8.68;;
36931;SDS011;22847;42.654;23.370;2022-07-29T00:50:41;16.10;;;9.25;;
36931;SDS011;22847;42.654;23.370;2022-07-29T00:53:07;15.07;;;8.52;;
36931;SDS011;22847;42.654;23.370;2022-07-29T00:55:33;10.35;;;8.82;;
36931;SDS011;22847;42.654;23.370;2022-07-29T00:57:59;11.40;;;7.78;;
36931;SDS011;22847;42.654;23.370;2022-07-29T01:00:25;11.63;;;7.97;;
36931;SDS011;22847;42.654;23.370;2022-07-29T01:02:52;14.85;;;7.63;;
36931;SDS011;22847;42.654;23.370;2022-07-29T01:05:19;9.65;;;7.82;;
36931;SDS011;22847;42.654;23.370;2022-07-29T01:07:46;14.57;;;8.60;;
36931;SDS011;22847;42.654;23.370;2022-07-29T01:10:14;13.68;;;8.13;;
36931;SDS011;22847;42.654;23.370;2022-07-29T01:12:42;13.50;;;8.13;;
36931;SDS011;22847;42.654;23.370;2022-07-29T01:15:11;16.45;;;8.45;;
36931;SDS011;22847;42.654;23.370;2022-07-29T01:23:11;14.30;;;8.10;;
36931;SDS011;22847;42.654;23.370;2022-07-29T01:28:36;11.18;;;7.57;;
36931;SDS011;22847;42.654;23.370;2022-07-29T01:33:41;19.67;;;8.07;;
36931;SDS011;22847;42.654;23.370;2022-07-29T01:36:18;9.18;;;8.00;;
36931;SDS011;22847;42.654;23.370;2022-07-29T01:39:37;13.93;;;8.55;;
36931;SDS011;22847;42.654;23.370;2022-07-29T01:41:49;17.75;;;8.60;;
36931;SDS011;22847;42.654;23.370;2022-07-29T01:44:27;13.98;;;8.75;;
36931;SDS011;22847;42.654;23.370;2022-07-29T01:46:57;12.90;;;8.38;;
36931;SDS011;22847;42.654;23.370;2022-07-29T01:49:27;10.48;;;8.95;;
36931;SDS011;22847;42.654;23.370;2022-07-29T01:52:03;13.55;;;9.68;;
36931;SDS011;22847;42.654;23.370;2022-07-29T01:54:43;18.38;;;11.55;;
36931;SDS011;22847;42.654;23.370;2022-07-29T01:57:14;15.82;;;10.90;;
36931;SDS011;22847;42.654;23.370;2022-07-29T01:59:45;15.05;;;11.38;;
36931;SDS011;22847;42.654;23.370;2022-07-29T02:02:13;16.30;;;11.77;;
36931;SDS011;22847;42.654;23.370;2022-07-29T02:04:40;15.68;;;10.35;;
36931;SDS011;22847;42.654;23.370;2022-07-29T02:07:08;18.00;;;9.45;;
36931;SDS011;22847;42.654;23.370;2022-07-29T02:09:38;14.80;;;10.25;;
36931;SDS011;22847;42.654;23.370;2022-07-29T02:12:06;13.25;;;9.73;;
36931;SDS011;22847;42.654;23.370;2022-07-29T02:14:34;15.57;;;9.13;;
36931;SDS011;22847;42.654;23.370;2022-07-29T02:17:03;13.73;;;8.82;;
36931;SDS011;22847;42.654;23.370;2022-07-29T02:19:29;12.70;;;8.23;;
36931;SDS011;22847;42.654;23.370;2022-07-29T02:21:58;10.90;;;8.27;;
36931;SDS011;22847;42.654;23.370;2022-07-29T02:24:25;11.75;;;7.57;;
36931;SDS011;22847;42.654;23.370;2022-07-29T02:26:52;12.80;;;8.40;;
36931;SDS011;22847;42.654;23.370;2022-07-29T02:29:21;10.43;;;8.43;;
36931;SDS011;22847;42.654;23.370;2022-07-29T02:31:50;11.10;;;8.82;;
36931;SDS011;22847;42.654;23.370;2022-07-29T02:34:17;12.68;;;8.38;;
36931;SDS011;22847;42.654;23.370;2022-07-29T02:36:44;11.20;;;8.32;;
36931;SDS011;22847;42.654;23.370;2022-07-29T02:39:11;11.32;;;9.10;;
36931;SDS011;22847;42.654;23.370;2022-07-29T02:41:45;11.65;;;8.32;;
36931;SDS011;22847;42.654;23.370;2022-07-29T02:44:14;14.98;;;8.38;;
36931;SDS011;22847;42.654;23.370;2022-07-29T02:46:52;13.50;;;7.75;;
36931;SDS011;22847;42.654;23.370;2022-07-29T02:50:11;13.88;;;8.63;;
36931;SDS011;22847;42.654;23.370;2022-07-29T02:55:15;8.95;;;7.03;;
36931;SDS011;22847;42.654;23.370;2022-07-29T02:57:49;11.73;;;7.85;;
36931;SDS011;22847;42.654;23.370;2022-07-29T03:00:19;8.98;;;7.43;;
36931;SDS011;22847;42.654;23.370;2022-07-29T03:02:49;16.45;;;7.68;;
36931;SDS011;22847;42.654;23.370;2022-07-29T03:05:19;14.52;;;8.23;;
36931;SDS011;22847;42.654;23.370;2022-07-29T03:07:46;13.88;;;8.02;;
36931;SDS011;22847;42.654;23.370;2022-07-29T03:10:20;14.25;;;8.00;;
36931;SDS011;22847;42.654;23.370;2022-07-29T03:12:46;12.85;;;8.55;;
36931;SDS011;22847;42.654;23.370;2022-07-29T03:15:12;10.88;;;8.35;;
36931;SDS011;22847;42.654;23.370;2022-07-29T03:17:39;19.00;;;9.27;;
36931;SDS011;22847;42.654;23.370;2022-07-29T03:20:06;14.18;;;9.90;;
36931;SDS011;22847;42.654;23.370;2022-07-29T03:22:32;14.95;;;10.10;;
36931;SDS011;22847;42.654;23.370;2022-07-29T03:25:03;12.60;;;10.65;;
36931;SDS011;22847;42.654;23.370;2022-07-29T03:27:33;13.52;;;10.95;;
36931;SDS011;22847;42.654;23.370;2022-07-29T03:29:59;17.88;;;13.77;;
36931;SDS011;22847;42.654;23.370;2022-07-29T03:32:24;20.45;;;14.80;;
36931;SDS011;22847;42.654;23.370;2022-07-29T03:34:50;25.75;;;16.50;;
36931;SDS011;22847;42.654;23.370;2022-07-29T03:37:15;29.23;;;17.83;;
36931;SDS011;22847;42.654;23.370;2022-07-29T03:39:41;25.05;;;15.90;;
36931;SDS011;22847;42.654;23.370;2022-07-29T03:42:08;23.13;;;14.60;;
36931;SDS011;22847;42.654;23.370;2022-07-29T03:44:37;20.52;;;14.32;;
36931;SDS011;22847;42.654;23.370;2022-07-29T03:47:03;15.68;;;12.45;;
36931;SDS011;22847;42.654;23.370;2022-07-29T03:49:30;21.85;;;14.00;;
36931;SDS011;22847;42.654;23.370;2022-07-29T03:51:57;21.90;;;13.52;;
36931;SDS011;22847;42.654;23.370;2022-07-29T03:54:23;22.20;;;14.70;;
36931;SDS011;22847;42.654;23.370;2022-07-29T03:56:48;26.73;;;14.88;;
36931;SDS011;22847;42.654;23.370;2022-07-29T03:59:17;18.65;;;13.82;;
36931;SDS011;22847;42.654;23.370;2022-07-29T04:01:44;19.65;;;14.20;;
36931;SDS011;22847;42.654;23.370;2022-07-29T04:04:11;18.73;;;13.90;;
36931;SDS011;22847;42.654;23.370;2022-07-29T04:06:38;22.83;;;14.68;;
36931;SDS011;22847;42.654;23.370;2022-07-29T04:09:07;16.67;;;13.48;;
36931;SDS011;22847;42.654;23.370;2022-07-29T04:11:33;17.52;;;11.45;;
36931;SDS011;22847;42.654;23.370;2022-07-29T04:13:59;22.35;;;12.25;;
36931;SDS011;22847;42.654;23.370;2022-07-29T04:16:24;14.05;;;10.75;;
36931;SDS011;22847;42.654;23.370;2022-07-29T04:18:50;17.05;;;9.68;;
36931;SDS011;22847;42.654;23.370;2022-07-29T04:21:15;10.70;;;8.65;;
36931;SDS011;22847;42.654;23.370;2022-07-29T04:23:41;18.83;;;8.27;;
36931;SDS011;22847;42.654;23.370;2022-07-29T04:26:10;17.23;;;8.68;;
36931;SDS011;22847;42.654;23.370;2022-07-29T04:28:35;10.32;;;8.23;;
36931;SDS011;22847;42.654;23.370;2022-07-29T04:31:01;13.70;;;7.65;;
36931;SDS011;22847;42.654;23.370;2022-07-29T04:33:26;10.93;;;7.65;;
36931;SDS011;22847;42.654;23.370;2022-07-29T04:35:52;10.57;;;7.35;;
36931;SDS011;22847;42.654;23.370;2022-07-29T04:38:17;13.27;;;6.68;;
36931;SDS011;22847;42.654;23.370;2022-07-29T04:40:43;15.27;;;6.90;;
36931;SDS011;22847;42.654;23.370;2022-07-29T04:43:09;15.73;;;7.03;;
36931;SDS011;22847;42.654;23.370;2022-07-29T04:45:34;10.60;;;6.43;;
36931;SDS011;22847;42.654;23.370;2022-07-29T04:47:59;18.02;;;6.85;;
36931;SDS011;22847;42.654;23.370;2022-07-29T04:50:25;9.50;;;6.47;;
36931;SDS011;22847;42.654;23.370;2022-07-29T04:52:50;9.73;;;6.47;;
36931;SDS011;22847;42.654;23.370;2022-07-29T04:55:16;10.10;;;6.20;;
36931;SDS011;22847;42.654;23.370;2022-07-29T04:57:41;8.85;;;6.53;;
36931;SDS011;22847;42.654;23.370;2022-07-29T05:00:07;10.98;;;6.85;;
36931;SDS011;22847;42.654;23.370;2022-07-29T05:02:33;12.48;;;6.28;;
36931;SDS011;22847;42.654;23.370;2022-07-29T05:04:58;9.18;;;6.20;;
36931;SDS011;22847;42.654;23.370;2022-07-29T05:07:24;11.88;;;6.70;;
36931;SDS011;22847;42.654;23.370;2022-07-29T05:09:49;8.43;;;6.03;;
36931;SDS011;22847;42.654;23.370;2022-07-29T05:12:15;11.07;;;6.68;;
36931;SDS011;22847;42.654;23.370;2022-07-29T05:14:40;9.32;;;5.78;;
36931;SDS011;22847;42.654;23.370;2022-07-29T05:17:05;7.45;;;5.57;;
36931;SDS011;22847;42.654;23.370;2022-07-29T05:19:31;7.22;;;5.85;;
36931;SDS011;22847;42.654;23.370;2022-07-29T05:21:56;9.60;;;6.43;;
36931;SDS011;22847;42.654;23.370;2022-07-29T05:24:22;11.45;;;6.13;;
36931;SDS011;22847;42.654;23.370;2022-07-29T05:26:47;8.35;;;6.57;;
36931;SDS011;22847;42.654;23.370;2022-07-29T05:29:13;12.48;;;6.80;;
36931;SDS011;22847;42.654;23.370;2022-07-29T05:31:38;9.80;;;6.72;;
36931;SDS011;22847;42.654;23.370;2022-07-29T05:34:04;9.40;;;6.35;;
36931;SDS011;22847;42.654;23.370;2022-07-29T05:36:29;12.55;;;9.27;;
36931;SDS011;22847;42.654;23.370;2022-07-29T05:38:54;11.38;;;8.35;;
36931;SDS011;22847;42.654;23.370;2022-07-29T05:41:20;10.70;;;7.32;;
36931;SDS011;22847;42.654;23.370;2022-07-29T05:43:46;15.60;;;7.70;;
36931;SDS011;22847;42.654;23.370;2022-07-29T05:46:11;12.82;;;7.18;;
36931;SDS011;22847;42.654;23.370;2022-07-29T05:48:38;13.73;;;7.40;;
36931;SDS011;22847;42.654;23.370;2022-07-29T05:51:04;12.70;;;6.80;;
36931;SDS011;22847;42.654;23.370;2022-07-29T05:53:30;10.65;;;6.75;;
36931;SDS011;22847;42.654;23.370;2022-07-29T05:55:55;15.27;;;7.18;;
36931;SDS011;22847;42.654;23.370;2022-07-29T05:58:20;10.07;;;6.90;;
36931;SDS011;22847;42.654;23.370;2022-07-29T06:00:46;8.35;;;6.80;;
36931;SDS011;22847;42.654;23.370;2022-07-29T06:03:12;10.85;;;7.13;;
36931;SDS011;22847;42.654;23.370;2022-07-29T06:05:37;12.85;;;8.10;;
36931;SDS011;22847;42.654;23.370;2022-07-29T06:08:03;12.50;;;7.03;;
36931;SDS011;22847;42.654;23.370;2022-07-29T06:10:32;8.68;;;7.30;;
36931;SDS011;22847;42.654;23.370;2022-07-29T06:12:57;14.90;;;8.50;;
36931;SDS011;22847;42.654;23.370;2022-07-29T06:15:23;14.25;;;7.22;;
36931;SDS011;22847;42.654;23.370;2022-07-29T06:17:48;9.75;;;6.88;;
36931;SDS011;22847;42.654;23.370;2022-07-29T06:20:14;10.52;;;7.15;;
36931;SDS011;22847;42.654;23.370;2022-07-29T06:22:39;11.80;;;6.85;;
36931;SDS011;22847;42.654;23.370;2022-07-29T06:25:04;11.40;;;7.28;;
36931;SDS011;22847;42.654;23.370;2022-07-29T06:27:30;7.90;;;6.53;;
36931;SDS011;22847;42.654;23.370;2022-07-29T06:29:56;10.82;;;6.63;;
36931;SDS011;22847;42.654;23.370;2022-07-29T06:32:21;9.15;;;6.55;;
36931;SDS011;22847;42.654;23.370;2022-07-29T06:34:47;12.27;;;7.05;;
36931;SDS011;22847;42.654;23.370;2022-07-29T06:37:12;12.88;;;5.80;;
36931;SDS011;22847;42.654;23.370;2022-07-29T06:39:39;11.07;;;6.57;;
36931;SDS011;22847;42.654;23.370;2022-07-29T06:42:05;14.68;;;8.80;;
36931;SDS011;22847;42.654;23.370;2022-07-29T06:44:31;9.90;;;6.22;;
36931;SDS011;22847;42.654;23.370;2022-07-29T06:46:58;10.60;;;7.55;;
36931;SDS011;22847;42.654;23.370;2022-07-29T06:49:24;13.43;;;6.72;;
36931;SDS011;22847;42.654;23.370;2022-07-29T06:51:51;8.85;;;6.82;;
36931;SDS011;22847;42.654;23.370;2022-07-29T06:54:17;10.75;;;7.10;;
36931;SDS011;22847;42.654;23.370;2022-07-29T06:56:42;10.77;;;6.53;;
36931;SDS011;22847;42.654;23.370;2022-07-29T06:59:09;10.85;;;5.97;;
36931;SDS011;22847;42.654;23.370;2022-07-29T07:01:39;10.20;;;6.65;;
36931;SDS011;22847;42.654;23.370;2022-07-29T07:04:06;9.85;;;6.72;;
36931;SDS011;22847;42.654;23.370;2022-07-29T07:06:36;8.20;;;5.65;;
36931;SDS011;22847;42.654;23.370;2022-07-29T07:09:02;8.55;;;5.35;;
36931;SDS011;22847;42.654;23.370;2022-07-29T07:11:28;9.30;;;5.60;;
36931;SDS011;22847;42.654;23.370;2022-07-29T07:13:54;14.35;;;5.47;;
36931;SDS011;22847;42.654;23.370;2022-07-29T07:16:19;8.25;;;5.00;;
36931;SDS011;22847;42.654;23.370;2022-07-29T07:18:46;11.05;;;5.75;;
36931;SDS011;22847;42.654;23.370;2022-07-29T07:21:11;11.23;;;6.15;;
36931;SDS011;22847;42.654;23.370;2022-07-29T07:23:37;6.05;;;5.35;;
36931;SDS011;22847;42.654;23.370;2022-07-29T07:26:03;9.55;;;5.07;;
36931;SDS011;22847;42.654;23.370;2022-07-29T07:28:30;8.43;;;4.57;;
36931;SDS011;22847;42.654;23.370;2022-07-29T07:30:55;6.82;;;4.55;;
36931;SDS011;22847;42.654;23.370;2022-07-29T07:33:20;6.30;;;4.40;;
36931;SDS011;22847;42.654;23.370;2022-07-29T07:35:46;5.80;;;4.32;;
36931;SDS011;22847;42.654;23.370;2022-07-29T07:38:12;9.10;;;4.80;;
36931;SDS011;22847;42.654;23.370;2022-07-29T07:40:37;10.27;;;4.65;;
36931;SDS011;22847;42.654;23.370;2022-07-29T07:48:12;8.30;;;4.32;;
36931;SDS011;22847;42.654;23.370;2022-07-29T07:50:38;6.40;;;4.78;;
36931;SDS011;22847;42.654;23.370;2022-07-29T07:53:03;13.48;;;5.40;;
36931;SDS011;22847;42.654;23.370;2022-07-29T07:55:29;6.30;;;4.30;;
36931;SDS011;22847;42.654;23.370;2022-07-29T07:57:54;5.93;;;4.07;;
36931;SDS011;22847;42.654;23.370;2022-07-29T08:00:20;8.82;;;4.50;;
36931;SDS011;22847;42.654;23.370;2022-07-29T08:02:46;5.85;;;4.28;;
36931;SDS011;22847;42.654;23.370;2022-07-29T08:05:12;5.10;;;4.30;;
36931;SDS011;22847;42.654;23.370;2022-07-29T08:07:42;9.23;;;6.22;;
36931;SDS011;22847;42.654;23.370;2022-07-29T08:10:09;14.15;;;7.50;;
36931;SDS011;22847;42.654;23.370;2022-07-29T08:12:34;13.07;;;5.30;;
36931;SDS011;22847;42.654;23.370;2022-07-29T08:15:00;7.30;;;4.32;;
36931;SDS011;22847;42.654;23.370;2022-07-29T08:17:25;14.80;;;4.40;;
36931;SDS011;22847;42.654;23.370;2022-07-29T08:19:51;5.65;;;4.00;;
36931;SDS011;22847;42.654;23.370;2022-07-29T08:22:17;6.25;;;3.28;;
36931;SDS011;22847;42.654;23.370;2022-07-29T08:24:42;6.65;;;3.55;;
36931;SDS011;22847;42.654;23.370;2022-07-29T08:27:08;7.80;;;4.20;;
36931;SDS011;22847;42.654;23.370;2022-07-29T08:29:38;15.82;;;5.25;;
36931;SDS011;22847;42.654;23.370;2022-07-29T08:32:04;5.80;;;3.80;;
36931;SDS011;22847;42.654;23.370;2022-07-29T08:34:29;6.63;;;3.83;;
36931;SDS011;22847;42.654;23.370;2022-07-29T08:36:55;4.43;;;3.15;;
36931;SDS011;22847;42.654;23.370;2022-07-29T08:39:21;9.73;;;4.20;;
36931;SDS011;22847;42.654;23.370;2022-07-29T08:41:47;6.07;;;3.38;;
36931;SDS011;22847;42.654;23.370;2022-07-29T08:44:13;7.18;;;3.17;;
36931;SDS011;22847;42.654;23.370;2022-07-29T08:46:41;8.65;;;3.85;;
36931;SDS011;22847;42.654;23.370;2022-07-29T08:49:07;5.68;;;3.42;;
36931;SDS011;22847;42.654;23.370;2022-07-29T08:51:32;5.15;;;2.70;;
36931;SDS011;22847;42.654;23.370;2022-07-29T08:54:00;6.85;;;3.95;;
36931;SDS011;22847;42.654;23.370;2022-07-29T08:56:26;4.32;;;3.78;;
36931;SDS011;22847;42.654;23.370;2022-07-29T08:58:52;6.70;;;3.72;;
36931;SDS011;22847;42.654;23.370;2022-07-29T09:01:23;4.40;;;3.30;;
36931;SDS011;22847;42.654;23.370;2022-07-29T09:03:49;6.65;;;3.35;;
36931;SDS011;22847;42.654;23.370;2022-07-29T09:06:17;5.35;;;3.45;;
36931;SDS011;22847;42.654;23.370;2022-07-29T09:08:45;5.55;;;3.15;;
36931;SDS011;22847;42.654;23.370;2022-07-29T09:11:12;8.55;;;3.58;;
36931;SDS011;22847;42.654;23.370;2022-07-29T09:13:38;10.00;;;3.60;;
36931;SDS011;22847;42.654;23.370;2022-07-29T09:16:05;6.93;;;3.50;;
36931;SDS011;22847;42.654;23.370;2022-07-29T09:18:34;10.48;;;4.95;;
36931;SDS011;22847;42.654;23.370;2022-07-29T09:21:00;4.40;;;3.28;;
36931;SDS011;22847;42.654;23.370;2022-07-29T09:24:01;10.93;;;4.85;;
36931;SDS011;22847;42.654;23.370;2022-07-29T09:26:41;7.10;;;4.18;;
36931;SDS011;22847;42.654;23.370;2022-07-29T09:29:09;5.65;;;4.45;;
36931;SDS011;22847;42.654;23.370;2022-07-29T09:31:40;8.52;;;3.90;;
36931;SDS011;22847;42.654;23.370;2022-07-29T09:34:09;14.43;;;4.43;;
36931;SDS011;22847;42.654;23.370;2022-07-29T09:36:46;7.88;;;4.13;;
36931;SDS011;22847;42.654;23.370;2022-07-29T09:39:13;5.57;;;4.45;;
36931;SDS011;22847;42.654;23.370;2022-07-29T09:41:53;7.60;;;4.32;;
36931;SDS011;22847;42.654;23.370;2022-07-29T09:44:20;6.38;;;4.70;;
36931;SDS011;22847;42.654;23.370;2022-07-29T09:46:54;8.00;;;4.15;;
36931;SDS011;22847;42.654;23.370;2022-07-29T09:49:19;5.38;;;4.07;;
36931;SDS011;22847;42.654;23.370;2022-07-29T09:51:45;8.32;;;4.35;;
36931;SDS011;22847;42.654;23.370;2022-07-29T09:54:23;4.03;;;3.25;;
36931;SDS011;22847;42.654;23.370;2022-07-29T09:56:50;10.88;;;4.90;;
36931;SDS011;22847;42.654;23.370;2022-07-29T09:59:16;8.95;;;4.35;;
36931;SDS011;22847;42.654;23.370;2022-07-29T10:01:42;4.55;;;3.75;;
36931;SDS011;22847;42.654;23.370;2022-07-29T10:04:08;5.47;;;4.10;;
36931;SDS011;22847;42.654;23.370;2022-07-29T10:06:34;7.50;;;4.38;;
36931;SDS011;22847;42.654;23.370;2022-07-29T10:09:06;7.15;;;4.05;;
36931;SDS011;22847;42.654;23.370;2022-07-29T10:11:34;16.83;;;5.50;;
36931;SDS011;22847;42.654;23.370;2022-07-29T10:14:01;4.63;;;3.67;;
36931;SDS011;22847;42.654;23.370;2022-07-29T10:16:27;14.95;;;5.57;;
36931;SDS011;22847;42.654;23.370;2022-07-29T10:18:57;10.43;;;4.63;;
36931;SDS011;22847;42.654;23.370;2022-07-29T10:21:24;7.05;;;5.15;;
36931;SDS011;22847;42.654;23.370;2022-07-29T10:23:50;7.90;;;5.15;;
36931;SDS011;22847;42.654;23.370;2022-07-29T10:26:16;6.78;;;5.32;;
36931;SDS011;22847;42.654;23.370;2022-07-29T10:28:42;6.47;;;4.85;;
36931;SDS011;22847;42.654;23.370;2022-07-29T10:31:08;7.70;;;5.18;;
36931;SDS011;22847;42.654;23.370;2022-07-29T10:42:47;6.68;;;3.80;;
36931;SDS011;22847;42.654;23.370;2022-07-29T10:45:15;3.90;;;3.50;;
36931;SDS011;22847;42.654;23.370;2022-07-29T10:47:42;6.68;;;4.03;;
36931;SDS011;22847;42.654;23.370;2022-07-29T10:50:08;5.80;;;3.72;;
36931;SDS011;22847;42.654;23.370;2022-07-29T11:00:50;8.02;;;4.13;;
36931;SDS011;22847;42.654;23.370;2022-07-29T11:06:11;3.92;;;3.40;;
36931;SDS011;22847;42.654;23.370;2022-07-29T11:08:37;17.73;;;4.40;;
36931;SDS011;22847;42.654;23.370;2022-07-29T11:16:13;5.70;;;4.13;;
36931;SDS011;22847;42.654;23.370;2022-07-29T11:21:36;6.03;;;3.63;;
36931;SDS011;22847;42.654;23.370;2022-07-29T11:24:15;10.18;;;4.47;;
36931;SDS011;22847;42.654;23.370;2022-07-29T11:27:05;6.68;;;3.83;;
36931;SDS011;22847;42.654;23.370;2022-07-29T11:29:31;6.82;;;4.40;;
36931;SDS011;22847;42.654;23.370;2022-07-29T11:32:10;5.13;;;4.00;;
36931;SDS011;22847;42.654;23.370;2022-07-29T11:34:37;10.07;;;5.25;;
36931;SDS011;22847;42.654;23.370;2022-07-29T11:39:40;6.63;;;4.63;;
36931;SDS011;22847;42.654;23.370;2022-07-29T11:44:57;9.45;;;4.90;;
36931;SDS011;22847;42.654;23.370;2022-07-29T11:47:27;4.57;;;3.83;;
36931;SDS011;22847;42.654;23.370;2022-07-29T11:49:54;14.73;;;4.82;;
36931;SDS011;22847;42.654;23.370;2022-07-29T11:52:22;5.07;;;4.00;;
36931;SDS011;22847;42.654;23.370;2022-07-29T11:54:48;5.63;;;4.43;;
36931;SDS011;22847;42.654;23.370;2022-07-29T11:57:18;6.03;;;4.22;;
36931;SDS011;22847;42.654;23.370;2022-07-29T11:59:45;5.18;;;4.07;;
36931;SDS011;22847;42.654;23.370;2022-07-29T12:02:12;5.38;;;4.78;;
36931;SDS011;22847;42.654;23.370;2022-07-29T12:04:51;5.88;;;4.50;;
36931;SDS011;22847;42.654;23.370;2022-07-29T12:07:17;7.30;;;4.88;;
36931;SDS011;22847;42.654;23.370;2022-07-29T12:09:50;6.60;;;4.75;;
36931;SDS011;22847;42.654;23.370;2022-07-29T12:12:17;5.63;;;4.87;;
36931;SDS011;22847;42.654;23.370;2022-07-29T12:14:42;5.03;;;4.32;;
36931;SDS011;22847;42.654;23.370;2022-07-29T12:17:33;8.57;;;5.45;;
36931;SDS011;22847;42.654;23.370;2022-07-29T12:19:59;8.95;;;4.90;;
36931;SDS011;22847;42.654;23.370;2022-07-29T12:22:26;8.05;;;4.18;;
36931;SDS011;22847;42.654;23.370;2022-07-29T12:24:53;5.80;;;5.20;;
36931;SDS011;22847;42.654;23.370;2022-07-29T12:27:19;5.88;;;5.28;;
36931;SDS011;22847;42.654;23.370;2022-07-29T12:29:54;6.05;;;4.70;;
36931;SDS011;22847;42.654;23.370;2022-07-29T12:32:30;7.93;;;5.38;;
36931;SDS011;22847;42.654;23.370;2022-07-29T12:35:07;13.48;;;9.23;;
36931;SDS011;22847;42.654;23.370;2022-07-29T12:37:35;11.65;;;6.15;;
36931;SDS011;22847;42.654;23.370;2022-07-29T12:40:03;6.20;;;4.82;;
36931;SDS011;22847;42.654;23.370;2022-07-29T12:42:30;6.85;;;5.03;;
36931;SDS011;22847;42.654;23.370;2022-07-29T12:44:56;4.80;;;4.40;;
36931;SDS011;22847;42.654;23.370;2022-07-29T12:47:21;10.85;;;5.20;;
36931;SDS011;22847;42.654;23.370;2022-07-29T12:49:47;6.57;;;5.40;;
36931;SDS011;22847;42.654;23.370;2022-07-29T12:55:09;6.35;;;5.10;;
36931;SDS011;22847;42.654;23.370;2022-07-29T12:57:45;7.78;;;5.00;;
36931;SDS011;22847;42.654;23.370;2022-07-29T13:00:12;8.48;;;4.75;;
36931;SDS011;22847;42.654;23.370;2022-07-29T13:02:39;5.28;;;4.78;;
36931;SDS011;22847;42.654;23.370;2022-07-29T13:05:06;5.60;;;4.80;;
36931;SDS011;22847;42.654;23.370;2022-07-29T13:07:36;8.35;;;4.88;;
36931;SDS011;22847;42.654;23.370;2022-07-29T13:10:12;6.18;;;5.25;;
36931;SDS011;22847;42.654;23.370;2022-07-29T13:15:28;5.30;;;4.80;;
36931;SDS011;22847;42.654;23.370;2022-07-29T13:17:54;5.82;;;5.22;;
36931;SDS011;22847;42.654;23.370;2022-07-29T13:20:22;5.32;;;4.68;;
36931;SDS011;22847;42.654;23.370;2022-07-29T13:22:49;6.28;;;5.32;;
36931;SDS011;22847;42.654;23.370;2022-07-29T13:25:15;10.85;;;5.45;;
36931;SDS011;22847;42.654;23.370;2022-07-29T13:27:49;8.02;;;5.65;;
36931;SDS011;22847;42.654;23.370;2022-07-29T13:30:15;6.30;;;4.60;;
36931;SDS011;22847;42.654;23.370;2022-07-29T13:32:40;8.75;;;4.60;;
36931;SDS011;22847;42.654;23.370;2022-07-29T13:35:06;6.72;;;5.40;;
36931;SDS011;22847;42.654;23.370;2022-07-29T13:37:34;8.57;;;4.80;;
36931;SDS011;22847;42.654;23.370;2022-07-29T13:40:03;5.72;;;4.80;;
36931;SDS011;22847;42.654;23.370;2022-07-29T13:42:29;9.65;;;4.72;;
36931;SDS011;22847;42.654;23.370;2022-07-29T13:44:55;5.43;;;4.93;;
36931;SDS011;22847;42.654;23.370;2022-07-29T13:47:21;6.88;;;4.68;;
36931;SDS011;22847;42.654;23.370;2022-07-29T13:49:47;6.35;;;5.00;;
36931;SDS011;22847;42.654;23.370;2022-07-29T13:52:13;5.75;;;5.05;;
36931;SDS011;22847;42.654;23.370;2022-07-29T13:54:38;6.53;;;5.80;;
36931;SDS011;22847;42.654;23.370;2022-07-29T13:57:04;6.20;;;5.03;;
36931;SDS011;22847;42.654;23.370;2022-07-29T13:59:30;6.85;;;5.20;;
36931;SDS011;22847;42.654;23.370;2022-07-29T14:01:56;6.50;;;4.75;;
36931;SDS011;22847;42.654;23.370;2022-07-29T14:04:21;6.28;;;5.07;;
36931;SDS011;22847;42.654;23.370;2022-07-29T14:06:48;5.60;;;4.97;;
36931;SDS011;22847;42.654;23.370;2022-07-29T14:09:14;6.32;;;5.00;;
36931;SDS011;22847;42.654;23.370;2022-07-29T14:11:40;6.55;;;5.38;;
36931;SDS011;22847;42.654;23.370;2022-07-29T14:14:05;5.47;;;4.88;;
36931;SDS011;22847;42.654;23.370;2022-07-29T14:16:31;10.65;;;5.00;;
36931;SDS011;22847;42.654;23.370;2022-07-29T14:18:56;7.55;;;5.40;;
36931;SDS011;22847;42.654;23.370;2022-07-29T14:21:22;5.38;;;4.88;;
36931;SDS011;22847;42.654;23.370;2022-07-29T14:23:47;6.70;;;5.38;;
36931;SDS011;22847;42.654;23.370;2022-07-29T14:26:13;5.57;;;4.75;;
36931;SDS011;22847;42.654;23.370;2022-07-29T14:28:38;6.90;;;4.75;;
36931;SDS011;22847;42.654;23.370;2022-07-29T14:31:04;8.25;;;5.07;;
36931;SDS011;22847;42.654;23.370;2022-07-29T14:33:29;10.68;;;5.05;;
36931;SDS011;22847;42.654;23.370;2022-07-29T14:35:55;5.82;;;4.65;;
36931;SDS011;22847;42.654;23.370;2022-07-29T14:38:20;10.07;;;5.22;;
36931;SDS011;22847;42.654;23.370;2022-07-29T14:40:46;6.82;;;4.78;;
36931;SDS011;22847;42.654;23.370;2022-07-29T14:43:12;9.15;;;7.32;;
36931;SDS011;22847;42.654;23.370;2022-07-29T14:45:38;6.80;;;5.70;;
36931;SDS011;22847;42.654;23.370;2022-07-29T14:48:04;8.70;;;6.38;;
36931;SDS011;22847;42.654;23.370;2022-07-29T14:50:30;7.25;;;5.28;;
36931;SDS011;22847;42.654;23.370;2022-07-29T14:52:56;5.90;;;5.18;;
36931;SDS011;22847;42.654;23.370;2022-07-29T14:55:21;8.65;;;5.72;;
36931;SDS011;22847;42.654;23.370;2022-07-29T14:57:47;6.60;;;5.80;;
36931;SDS011;22847;42.654;23.370;2022-07-29T15:00:13;6.97;;;5.57;;
36931;SDS011;22847;42.654;23.370;2022-07-29T15:02:39;6.60;;;5.68;;
36931;SDS011;22847;42.654;23.370;2022-07-29T15:05:05;9.88;;;5.93;;
36931;SDS011;22847;42.654;23.370;2022-07-29T15:07:30;8.60;;;5.93;;
36931;SDS011;22847;42.654;23.370;2022-07-29T15:09:56;6.45;;;5.85;;
36931;SDS011;22847;42.654;23.370;2022-07-29T15:12:21;6.78;;;5.50;;
36931;SDS011;22847;42.654;23.370;2022-07-29T15:14:46;12.05;;;5.95;;
36931;SDS011;22847;42.654;23.370;2022-07-29T15:17:12;9.55;;;6.00;;
36931;SDS011;22847;42.654;23.370;2022-07-29T15:19:37;6.70;;;5.47;;
36931;SDS011;22847;42.654;23.370;2022-07-29T15:22:03;8.63;;;5.45;;
36931;SDS011;22847;42.654;23.370;2022-07-29T15:24:30;6.50;;;4.72;;
36931;SDS011;22847;42.654;23.370;2022-07-29T15:26:55;7.65;;;4.60;;
36931;SDS011;22847;42.654;23.370;2022-07-29T15:29:21;7.70;;;4.90;;